Time;durP1;ratioP1;P1;durP2;ratioP2;P2;SDS_P1;SDS_P2;PMS_P1;PMS_P2;Temp;Humidity;BMP_temperature;BMP_pressure;BME280_temperature;BME280_humidity;BME280_pressure;Samples;Min_cycle;Max_cycle;Signal;HPM_P1;HPM_P2
2022/08/24 00:01:44;;;;;;;71.73;67.73;;;13.40;87.10;;;;;;4197329;28;20184;-77
2022/08/24 00:03:45;;;;;;;43.87;41.63;;;13.40;87.50;;;;;;4179150;28;20214;-79
2022/08/24 00:05:46;;;;;;;15.70;14.70;;;13.40;87.60;;;;;;4197276;28;20270;-77
2022/08/24 00:07:48;;;;;;;95.77;91.10;;;13.40;89.10;;;;;;4179530;28;20180;-79
2022/08/24 00:09:49;;;;;;;57.83;55.13;;;13.30;88.30;;;;;;4179468;28;20185;-78
2022/08/24 00:11:50;;;;;;;82.60;78.63;;;13.30;88.50;;;;;;4197118;28;20211;-79
2022/08/24 00:13:51;;;;;;;39.77;37.63;;;13.30;88.90;;;;;;4196483;28;20206;-77
2022/08/24 00:15:52;;;;;;;122.97;116.67;;;13.20;89.30;;;;;;4197636;28;20176;-78
2022/08/24 00:17:53;;;;;;;38.83;36.97;;;13.20;89.90;;;;;;4179514;28;20206;-78
2022/08/24 00:19:53;;;;;;;38.40;36.50;;;13.20;90.10;;;;;;4196969;28;20648;-77
2022/08/24 00:21:54;;;;;;;129.30;122.67;;;13.20;90.00;;;;;;4197149;28;20172;-77
2022/08/24 00:23:55;;;;;;;40.53;38.00;;;13.20;90.10;;;;;;4178435;28;20635;-78
2022/08/24 00:25:56;;;;;;;25.00;23.67;;;13.20;90.20;;;;;;4197007;28;20187;-78
2022/08/24 00:27:57;;;;;;;34.70;32.83;;;13.20;90.20;;;;;;4179086;28;20414;-77
2022/08/24 00:29:58;;;;;;;49.57;47.07;;;13.10;90.20;;;;;;4196810;28;20183;-78
2022/08/24 00:31:58;;;;;;;145.70;137.77;;;13.10;90.10;;;;;;4178506;28;20247;-79
2022/08/24 00:33:59;;;;;;;29.93;28.30;;;13.10;90.00;;;;;;4196046;28;20282;-77
2022/08/24 00:35:59;;;;;;;41.30;38.90;;;13.10;89.90;;;;;;4178927;28;20191;-77
2022/08/24 00:38:00;;;;;;;49.80;47.33;;;13.20;90.10;;;;;;4178847;28;20180;-77
2022/08/24 00:40:03;;;;;;;18.23;17.13;;;13.10;90.20;;;;;;4196463;28;20652;-77
2022/08/24 00:42:03;;;;;;;17.43;16.43;;;13.10;90.00;;;;;;4178623;28;20624;-77
2022/08/24 00:44:05;;;;;;;12.40;11.60;;;13.10;90.00;;;;;;4195571;28;20223;-77
2022/08/24 00:46:19;;;;;;;23.90;22.53;;;13.10;89.70;;;;;;4196688;28;20822;-77
2022/08/24 00:48:24;;;;;;;20.60;19.40;;;13.10;89.90;;;;;;4196606;28;20618;-76
2022/08/24 00:50:35;;;;;;;40.50;37.90;;;13.10;89.70;;;;;;4196431;28;20860;-78
2022/08/24 00:52:46;;;;;;;29.67;28.13;;;13.10;89.50;;;;;;4196496;28;20247;-77
2022/08/24 00:54:54;;;;;;;41.90;39.90;;;13.10;89.60;;;;;;4196441;28;20204;-77
2022/08/24 00:56:59;;;;;;;11.33;10.53;;;13.10;89.90;;;;;;4178611;28;20776;-76
2022/08/24 00:59:06;;;;;;;21.63;20.47;;;13.10;89.90;;;;;;4178807;28;20168;-77
2022/08/24 01:01:08;;;;;;;73.47;70.13;;;13.10;90.10;;;;;;4196588;28;20172;-77
2022/08/24 01:03:09;;;;;;;59.70;56.60;;;13.00;90.30;;;;;;4177854;28;20184;-76
2022/08/24 01:05:11;;;;;;;27.00;25.53;;;12.90;90.60;;;;;;4196256;28;20702;-77
2022/08/24 01:07:12;;;;;;;31.50;29.83;;;12.90;90.90;;;;;;4196401;28;20198;-76
2022/08/24 01:09:13;;;;;;;88.07;82.47;;;12.90;90.90;;;;;;4196236;28;20187;-76
2022/08/24 01:11:17;;;;;;;25.27;23.77;;;12.90;90.80;;;;;;4196254;28;20195;-77
2022/08/24 01:13:19;;;;;;;38.47;36.47;;;12.90;91.50;;;;;;4195285;28;20176;-77
2022/08/24 01:15:21;;;;;;;65.90;62.77;;;12.80;91.20;;;;;;4178208;28;20231;-76
2022/08/24 01:19:49;;;;;;;52.57;50.07;;;12.70;91.60;;;;;;4196629;28;20694;-76
2022/08/24 01:21:55;;;;;;;36.27;34.33;;;12.70;91.70;;;;;;4178544;28;20202;-77
2022/08/24 01:23:59;;;;;;;24.60;23.33;;;12.70;91.60;;;;;;4195706;28;20849;-76
2022/08/24 01:26:01;;;;;;;24.27;22.97;;;12.70;91.70;;;;;;4178418;28;20206;-76
2022/08/24 01:28:07;;;;;;;24.47;23.27;;;12.70;91.60;;;;;;4178397;28;20192;-75
2022/08/24 01:30:12;;;;;;;26.30;24.90;;;12.70;91.80;;;;;;4195997;28;20911;-78
2022/08/24 01:32:13;;;;;;;93.40;89.17;;;12.60;91.90;;;;;;4178026;28;20212;-77
2022/08/24 01:34:14;;;;;;;109.93;104.53;;;12.60;91.90;;;;;;4195455;28;20195;-77
2022/08/24 01:36:36;;;;;;;73.00;69.27;;;12.60;92.10;;;;;;4195868;28;20551;-76
2022/08/24 01:38:36;;;;;;;43.87;41.70;;;12.60;92.10;;;;;;4185599;28;20632;-77
2022/08/24 01:40:47;;;;;;;12.53;11.67;;;12.60;92.20;;;;;;4195805;28;20176;-76
2022/08/24 01:42:51;;;;;;;47.03;44.57;;;12.60;92.20;;;;;;4195188;28;20190;-77
2022/08/24 01:44:52;;;;;;;81.67;77.93;;;12.60;92.30;;;;;;4195395;28;20607;-76
2022/08/24 01:46:54;;;;;;;31.03;29.07;;;12.60;92.20;;;;;;4195772;28;20260;-77
2022/08/24 01:48:58;;;;;;;22.23;21.03;;;12.60;92.20;;;;;;4195896;28;20657;-76
2022/08/24 01:50:59;;;;;;;17.57;16.60;;;12.60;91.90;;;;;;4195708;28;20214;-76
2022/08/24 01:53:03;;;;;;;44.50;42.30;;;12.50;92.30;;;;;;4177103;28;20625;-76
2022/08/24 01:55:10;;;;;;;15.77;14.80;;;12.50;92.40;;;;;;4195656;28;20199;-75
2022/08/24 01:57:11;;;;;;;25.83;24.53;;;12.40;92.40;;;;;;4195702;28;20605;-75
2022/08/24 01:59:12;;;;;;;47.00;44.60;;;12.50;92.70;;;;;;4195705;28;20179;-76
2022/08/24 02:01:16;;;;;;;80.20;76.33;;;12.40;92.70;;;;;;4195533;28;20183;-75
2022/08/24 02:03:17;;;;;;;23.90;22.67;;;12.40;92.60;;;;;;4194777;28;20175;-76
2022/08/24 02:05:18;;;;;;;43.17;40.90;;;12.40;92.60;;;;;;4195577;28;20199;-75
2022/08/24 02:07:19;;;;;;;87.43;83.03;;;12.40;92.80;;;;;;4195758;28;20211;-76
2022/08/24 02:09:19;;;;;;;40.70;38.57;;;12.30;93.10;;;;;;4195628;28;20221;-75
2022/08/24 02:11:20;;;;;;;93.87;89.03;;;12.40;93.20;;;;;;4195527;28;20215;-75
2022/08/24 02:13:21;;;;;;;48.00;45.57;;;12.30;93.30;;;;;;4194892;28;20185;-76
2022/08/24 02:15:32;;;;;;;20.67;19.30;;;12.40;93.40;;;;;;4195482;28;20199;-76
2022/08/24 02:17:34;;;;;;;16.67;15.67;;;12.30;93.20;;;;;;4195726;28;20168;-75
2022/08/24 02:19:35;;;;;;;73.63;68.90;;;12.30;93.40;;;;;;4177585;28;20282;-74
2022/08/24 02:21:36;;;;;;;111.40;105.83;;;12.30;93.50;;;;;;4195757;28;20180;-74
2022/08/24 02:23:40;;;;;;;28.40;26.97;;;12.30;93.50;;;;;;4203648;28;20671;-76
2022/08/24 02:25:41;;;;;;;25.80;24.33;;;12.30;93.60;;;;;;4207081;28;20195;-76
2022/08/24 02:27:41;;;;;;;30.93;29.33;;;12.30;93.80;;;;;;4208334;28;20179;-75
2022/08/24 02:29:43;;;;;;;40.63;38.57;;;12.30;93.60;;;;;;4201164;28;20210;-75
2022/08/24 02:31:43;;;;;;;22.23;20.93;;;12.20;93.60;;;;;;4180910;28;20212;-75
2022/08/24 02:33:44;;;;;;;26.53;25.20;;;12.20;93.70;;;;;;4197591;28;20190;-75
2022/08/24 02:35:45;;;;;;;57.87;55.07;;;12.20;94.00;;;;;;4198599;28;20186;-75
2022/08/24 02:37:46;;;;;;;36.10;34.30;;;12.20;94.10;;;;;;4199121;28;20187;-74
2022/08/24 02:39:47;;;;;;;19.83;18.83;;;12.20;94.10;;;;;;4193602;28;20845;-74
2022/08/24 02:41:47;;;;;;;45.33;43.00;;;12.10;94.30;;;;;;4195885;28;20224;-75
2022/08/24 02:43:48;;;;;;;51.47;48.87;;;12.10;94.30;;;;;;4179848;28;20184;-75
2022/08/24 02:45:49;;;;;;;29.07;27.10;;;12.20;94.10;;;;;;4198163;28;20198;-74
2022/08/24 02:47:50;;;;;;;42.63;40.47;;;12.20;94.10;;;;;;4198631;28;20630;-73
2022/08/24 02:49:50;;;;;;;22.40;21.13;;;12.20;94.00;;;;;;4198504;28;20183;-75
2022/08/24 02:51:51;;;;;;;13.73;12.73;;;12.10;94.00;;;;;;4198315;28;20207;-74
2022/08/24 02:53:52;;;;;;;22.57;21.27;;;12.20;94.10;;;;;;4197864;28;20199;-75
2022/08/24 02:55:52;;;;;;;32.10;30.40;;;12.20;94.00;;;;;;4197841;28;20178;-75
2022/08/24 02:57:53;;;;;;;29.23;27.77;;;12.10;94.30;;;;;;4196602;28;20222;-74
2022/08/24 02:59:53;;;;;;;26.97;25.50;;;12.10;94.60;;;;;;4198376;28;20237;-73
2022/08/24 03:01:54;;;;;;;43.97;41.80;;;12.10;94.50;;;;;;4180388;28;20188;-74
2022/08/24 03:03:55;;;;;;;31.13;29.30;;;12.10;94.60;;;;;;4197724;28;20209;-73
2022/08/24 03:05:56;;;;;;;54.07;50.77;;;12.00;95.00;;;;;;4198358;28;20184;-74
2022/08/24 03:07:56;;;;;;;25.67;24.27;;;12.00;94.80;;;;;;4198036;28;20240;-75
2022/08/24 03:09:57;;;;;;;30.73;29.07;;;12.00;95.00;;;;;;4198120;28;20180;-73
2022/08/24 03:11:57;;;;;;;27.67;26.27;;;11.90;95.10;;;;;;4198006;28;20207;-74
2022/08/24 03:13:58;;;;;;;35.70;33.67;;;11.90;95.40;;;;;;4197468;28;20239;-74
2022/08/24 03:15:59;;;;;;;35.47;33.57;;;11.90;95.40;;;;;;4198189;28;20651;-73
2022/08/24 03:18:00;;;;;;;23.57;22.20;;;11.90;95.60;;;;;;4198105;28;20230;-74
2022/08/24 03:20:02;;;;;;;36.20;34.33;;;11.80;95.70;;;;;;4180232;28;20230;-74
2022/08/24 03:22:03;;;;;;;38.03;36.03;;;11.80;95.60;;;;;;4198018;28;20188;-74
2022/08/24 03:24:04;;;;;;;28.80;27.30;;;11.80;95.60;;;;;;4197253;28;20295;-73
2022/08/24 03:26:05;;;;;;;20.13;19.00;;;11.80;95.50;;;;;;4180115;28;20239;-74
2022/08/24 03:28:06;;;;;;;24.10;22.83;;;11.80;95.40;;;;;;4180295;28;20262;-74
2022/08/24 03:30:09;;;;;;;40.53;38.50;;;11.90;95.20;;;;;;4197747;28;20183;-73
2022/08/24 03:32:09;;;;;;;29.77;27.80;;;11.90;95.30;;;;;;4197818;28;20580;-74
2022/08/24 03:34:12;;;;;;;44.27;41.17;;;11.80;95.60;;;;;;4197271;28;20195;-74
2022/08/24 03:36:13;;;;;;;39.50;37.40;;;11.80;95.50;;;;;;4199060;28;20186;-73
2022/08/24 03:38:13;;;;;;;56.43;53.27;;;11.80;95.60;;;;;;4179347;28;20576;-74
2022/08/24 03:40:14;;;;;;;36.17;34.23;;;11.80;95.60;;;;;;4197673;28;20176;-73
2022/08/24 03:42:15;;;;;;;32.87;31.03;;;11.80;95.50;;;;;;4179809;28;20184;-73
2022/08/24 03:44:15;;;;;;;22.37;21.03;;;11.80;95.70;;;;;;4196642;28;20270;-74
2022/08/24 03:46:27;;;;;;;22.57;21.37;;;11.80;95.90;;;;;;4197618;28;20298;-74
2022/08/24 03:48:29;;;;;;;19.97;18.57;;;11.80;96.20;;;;;;4197519;28;20225;-72
2022/08/24 03:50:29;;;;;;;23.87;22.57;;;11.70;96.30;;;;;;4197378;28;20252;-73
2022/08/24 03:52:30;;;;;;;24.97;23.53;;;11.70;96.60;;;;;;4197563;28;20180;-73
2022/08/24 03:54:31;;;;;;;46.33;43.93;;;11.70;96.50;;;;;;4179220;28;20204;-73
2022/08/24 03:56:32;;;;;;;37.93;35.97;;;11.70;96.80;;;;;;4179507;28;20192;-74
2022/08/24 03:58:37;;;;;;;36.23;34.47;;;11.60;96.70;;;;;;4197363;28;20206;-74
2022/08/24 04:00:41;;;;;;;35.13;32.67;;;11.60;96.70;;;;;;4197454;28;20599;-73
2022/08/24 04:02:43;;;;;;;28.97;27.10;;;11.60;96.90;;;;;;4197406;28;20184;-73
2022/08/24 04:04:43;;;;;;;42.23;40.00;;;11.60;96.90;;;;;;4196945;28;20191;-73
2022/08/24 04:06:45;;;;;;;35.50;33.60;;;11.60;96.90;;;;;;4197238;28;20179;-73
2022/08/24 04:08:46;;;;;;;36.07;34.17;;;11.60;97.10;;;;;;4197241;28;20180;-73
2022/08/24 04:10:47;;;;;;;24.63;23.20;;;11.50;97.20;;;;;;4179502;28;20208;-74
2022/08/24 04:12:48;;;;;;;18.60;17.57;;;11.50;97.40;;;;;;4196711;28;20185;-75
2022/08/24 04:14:54;;;;;;;34.10;32.27;;;11.50;97.60;;;;;;4197154;28;20603;-73
2022/08/24 04:16:55;;;;;;;40.90;38.73;;;11.40;97.60;;;;;;4197150;28;20601;-72
2022/08/24 04:18:56;;;;;;;28.00;26.27;;;11.40;97.70;;;;;;4197305;28;20266;-70
2022/08/24 04:20:57;;;;;;;32.10;30.50;;;11.40;97.60;;;;;;4197210;28;20179;-72
2022/08/24 04:22:57;;;;;;;17.87;16.83;;;11.40;97.50;;;;;;4178634;28;20184;-73
2022/08/24 04:24:58;;;;;;;28.80;27.27;;;11.40;97.50;;;;;;4196951;28;20249;-73
2022/08/24 04:26:59;;;;;;;22.30;21.10;;;11.40;97.50;;;;;;4197068;28;20290;-73
2022/08/24 04:29:01;;;;;;;36.40;34.40;;;11.40;97.60;;;;;;4178281;28;20779;-73
2022/08/24 04:31:04;;;;;;;56.23;53.47;;;11.40;97.70;;;;;;4196740;28;20210;-72
2022/08/24 04:33:05;;;;;;;32.13;30.30;;;11.40;98.00;;;;;;4196296;28;20187;-71
2022/08/24 04:35:06;;;;;;;23.67;22.20;;;11.30;98.00;;;;;;4197010;28;20196;-72
2022/08/24 04:37:07;;;;;;;39.20;37.20;;;11.30;97.80;;;;;;4196794;28;20172;-73
2022/08/24 04:39:08;;;;;;;32.77;30.37;;;11.40;97.60;;;;;;4196657;28;20193;-71
2022/08/24 04:41:13;;;;;;;40.53;38.23;;;11.40;97.80;;;;;;4178879;28;20294;-71
2022/08/24 04:43:15;;;;;;;25.40;23.80;;;11.40;97.60;;;;;;4197326;28;20184;-72
2022/08/24 04:45:15;;;;;;;31.40;29.63;;;11.50;97.50;;;;;;4196667;28;20211;-72
2022/08/24 04:47:16;;;;;;;16.27;15.23;;;11.50;97.20;;;;;;4195376;28;20202;-73
2022/08/24 04:49:16;;;;;;;29.67;27.87;;;11.60;97.00;;;;;;4195508;28;20172;-71
2022/08/24 04:51:18;;;;;;;15.43;14.50;;;11.60;96.80;;;;;;4196600;28;20215;-74
2022/08/24 04:53:19;;;;;;;27.00;25.60;;;11.70;96.50;;;;;;4169239;28;20816;-72
2022/08/24 04:55:19;;;;;;;14.87;13.97;;;11.70;96.60;;;;;;4195014;28;20289;-73
2022/08/24 04:57:20;;;;;;;19.47;18.33;;;11.70;96.80;;;;;;4196345;28;20184;-73
2022/08/24 04:59:20;;;;;;;13.43;12.63;;;11.70;96.70;;;;;;4196434;28;20186;-72
2022/08/24 05:01:25;;;;;;;17.93;16.77;;;11.70;96.80;;;;;;4196281;28;20222;-72
2022/08/24 05:03:25;;;;;;;15.03;14.20;;;11.70;97.00;;;;;;4177830;28;20591;-73
2022/08/24 05:05:26;;;;;;;29.37;27.50;;;11.60;97.20;;;;;;4196675;28;20226;-72
2022/08/24 05:07:26;;;;;;;25.70;24.30;;;11.70;97.50;;;;;;4196410;28;20186;-72
2022/08/24 05:09:27;;;;;;;18.10;16.87;;;11.70;97.60;;;;;;4196469;28;20175;-73
2022/08/24 05:11:28;;;;;;;39.30;37.27;;;11.70;97.70;;;;;;4196181;28;20229;-72
2022/08/24 05:13:28;;;;;;;9.30;8.57;;;11.80;97.50;;;;;;4195656;28;20180;-72
2022/08/24 05:15:30;;;;;;;24.97;23.37;;;11.80;97.40;;;;;;4196162;28;20679;-72
2022/08/24 05:17:31;;;;;;;24.03;22.63;;;11.80;97.20;;;;;;4196160;28;20647;-73
2022/08/24 05:19:31;;;;;;;30.47;28.80;;;11.90;97.00;;;;;;4196146;28;20202;-72
2022/08/24 05:21:32;;;;;;;40.73;38.73;;;11.90;96.80;;;;;;4196236;28;20196;-72
2022/08/24 05:23:34;;;;;;;21.67;20.53;;;12.00;96.90;;;;;;4195409;28;20191;-71
2022/08/24 05:25:35;;;;;;;33.17;31.27;;;12.00;96.80;;;;;;4196300;28;20182;-73
2022/08/24 05:27:35;;;;;;;18.13;17.10;;;12.10;96.50;;;;;;4196061;28;20176;-71
2022/08/24 05:29:36;;;;;;;28.60;27.07;;;12.10;96.40;;;;;;4196158;28;20184;-71
2022/08/24 05:31:37;;;;;;;21.33;19.83;;;12.20;96.50;;;;;;4195894;28;20206;-74
2022/08/24 05:33:37;;;;;;;31.37;29.80;;;12.10;96.30;;;;;;4195276;28;20179;-73
2022/08/24 05:35:39;;;;;;;27.63;26.07;;;12.20;96.20;;;;;;4195900;28;20617;-73
2022/08/24 05:37:42;;;;;;;27.83;26.33;;;12.20;96.30;;;;;;4195763;28;20192;-73
2022/08/24 05:39:42;;;;;;;33.23;31.40;;;12.20;96.30;;;;;;4177990;28;20180;-71
2022/08/24 05:41:45;;;;;;;48.07;45.53;;;12.30;96.30;;;;;;4195724;28;20273;-73
2022/08/24 05:43:46;;;;;;;29.50;27.93;;;12.30;96.40;;;;;;4194949;28;20183;-73
2022/08/24 05:45:46;;;;;;;42.87;40.63;;;12.40;96.20;;;;;;4195941;28;20164;-73
2022/08/24 05:47:47;;;;;;;31.17;29.47;;;12.40;96.10;;;;;;4195750;28;20175;-73
2022/08/24 05:49:51;;;;;;;37.37;35.57;;;12.40;96.40;;;;;;4195775;28;20183;-73
2022/08/24 05:51:52;;;;;;;33.33;31.63;;;12.40;96.50;;;;;;4195672;28;20212;-72
2022/08/24 05:53:53;;;;;;;23.17;21.70;;;12.50;96.40;;;;;;4194624;28;20199;-72
2022/08/24 05:55:53;;;;;;;36.87;34.97;;;12.50;96.30;;;;;;4195616;28;20237;-72
2022/08/24 05:57:55;;;;;;;34.17;32.40;;;12.60;96.00;;;;;;4195606;28;20171;-72
2022/08/24 05:59:56;;;;;;;28.37;26.87;;;12.70;96.20;;;;;;4195215;28;20214;-73
2022/08/24 06:01:57;;;;;;;57.13;54.43;;;12.80;95.60;;;;;;4195694;28;20195;-72
2022/08/24 06:03:58;;;;;;;45.00;42.73;;;12.80;95.60;;;;;;4194887;28;20203;-73
2022/08/24 06:06:01;;;;;;;49.40;47.03;;;12.80;95.20;;;;;;4177829;28;20731;-72
2022/08/24 06:08:02;;;;;;;53.40;50.93;;;12.80;95.30;;;;;;4195685;28;20197;-73
2022/08/24 06:10:03;;;;;;;37.83;36.00;;;12.90;95.60;;;;;;4195450;28;20179;-72
2022/08/24 06:12:05;;;;;;;39.37;37.37;;;13.00;95.20;;;;;;4195488;28;20207;-72
2022/08/24 06:14:11;;;;;;;48.40;45.90;;;13.00;95.00;;;;;;4194852;28;20269;-73
2022/08/24 06:16:12;;;;;;;54.50;51.70;;;13.10;95.10;;;;;;4195582;28;20250;-72
2022/08/24 06:18:13;;;;;;;103.70;98.53;;;13.20;94.90;;;;;;4195584;28;20182;-72
2022/08/24 06:20:14;;;;;;;80.23;75.80;;;13.20;95.10;;;;;;4177904;28;20688;-73
2022/08/24 06:22:14;;;;;;;226.67;126.97;;;13.30;94.70;;;;;;4195499;28;20232;-73
2022/08/24 06:24:16;;;;;;;65.83;62.47;;;13.50;93.80;;;;;;4194299;28;20214;-72
2022/08/24 06:28:38;;;;;;;311.93;129.83;;;13.70;93.20;;;;;;4195153;28;20584;-72
2022/08/24 06:30:38;;;;;;;115.60;110.00;;;13.70;93.00;;;;;;4195198;28;20219;-72
2022/08/24 06:32:42;;;;;;;80.47;76.67;;;13.80;93.30;;;;;;4195504;28;20187;-71
2022/08/24 06:34:43;;;;;;;129.60;104.27;;;13.80;93.10;;;;;;4195019;28;20687;-71
2022/08/24 06:36:44;;;;;;;89.70;84.43;;;14.00;92.50;;;;;;4195267;28;20179;-72
2022/08/24 06:38:45;;;;;;;149.27;141.93;;;14.10;92.30;;;;;;4177293;28;20275;-71
2022/08/24 06:40:45;;;;;;;50.03;47.57;;;14.10;91.90;;;;;;4195176;28;20180;-72
2022/08/24 06:42:47;;;;;;;83.30;79.40;;;14.30;91.60;;;;;;4176846;28;20188;-74
2022/08/24 06:44:47;;;;;;;69.43;65.83;;;14.30;91.50;;;;;;4195366;28;20262;-72
2022/08/24 06:46:48;;;;;;;125.97;119.73;;;14.40;91.30;;;;;;4195240;28;20172;-73
2022/08/24 06:48:50;;;;;;;115.73;110.03;;;14.50;91.20;;;;;;4195081;28;20203;-72
2022/08/24 06:50:51;;;;;;;51.37;48.77;;;14.60;90.30;;;;;;4194995;28;20688;-72
2022/08/24 06:52:51;;;;;;;143.03;136.37;;;14.70;90.20;;;;;;4194594;28;20564;-72
2022/08/24 06:54:52;;;;;;;158.73;148.17;;;14.70;90.40;;;;;;4195349;28;20200;-72
2022/08/24 06:56:54;;;;;;;43.13;40.93;;;14.80;90.80;;;;;;4195143;28;20168;-72
2022/08/24 06:58:54;;;;;;;122.17;116.20;;;14.80;91.10;;;;;;4195209;28;20256;-71
2022/08/24 07:00:55;;;;;;;221.20;198.33;;;15.00;91.30;;;;;;4194637;28;20207;-72
2022/08/24 07:02:56;;;;;;;240.73;158.83;;;15.10;91.20;;;;;;4194181;28;20187;-72
2022/08/24 07:04:57;;;;;;;636.90;254.17;;;15.40;91.00;;;;;;4177327;28;20236;-72
2022/08/24 07:06:57;;;;;;;131.37;124.77;;;15.50;91.10;;;;;;4195057;28;20176;-72
2022/08/24 07:08:58;;;;;;;317.63;161.03;;;15.60;91.10;;;;;;4194994;28;20703;-72
2022/08/24 07:10:59;;;;;;;202.37;148.77;;;15.70;91.00;;;;;;4194887;28;20204;-71
2022/08/24 07:12:59;;;;;;;89.77;85.40;;;16.00;90.30;;;;;;4196454;28;20188;-73
2022/08/24 07:15:00;;;;;;;203.67;171.63;;;16.20;88.00;;;;;;4180238;28;20200;-71
2022/08/24 07:17:00;;;;;;;243.20;221.23;;;16.30;88.30;;;;;;4198007;28;20229;-72
2022/08/24 07:19:03;;;;;;;189.70;176.73;;;16.40;86.90;;;;;;4198063;28;20186;-74
2022/08/24 07:21:04;;;;;;;655.97;286.70;;;16.70;82.70;;;;;;4198116;28;20630;-72
2022/08/24 07:23:06;;;;;;;933.50;214.50;;;16.90;82.60;;;;;;4197612;28;20207;-74
2022/08/24 07:25:06;;;;;;;74.67;70.57;;;17.00;82.10;;;;;;4180460;28;20242;-74
2022/08/24 07:27:07;;;;;;;95.13;88.20;;;17.30;76.70;;;;;;4198387;28;20187;-74
2022/08/24 07:29:14;;;;;;;281.90;132.57;;;17.50;75.30;;;;;;4198588;28;20190;-74
2022/08/24 07:31:14;;;;;;;65.67;61.63;;;17.60;74.60;;;;;;4198065;28;20196;-74
2022/08/24 07:33:15;;;;;;;116.07;94.40;;;17.90;69.60;;;;;;4179675;28;20191;-77
2022/08/24 07:35:16;;;;;;;236.17;220.20;;;18.10;69.00;;;;;;4197901;28;20245;-73
2022/08/24 07:37:16;;;;;;;202.27;106.23;;;18.40;67.50;;;;;;4197907;28;20262;-73
2022/08/24 07:39:17;;;;;;;159.57;149.07;;;18.40;68.40;;;;;;4179936;28;20711;-75
2022/08/24 07:41:19;;;;;;;96.77;88.07;;;18.50;67.40;;;;;;4197681;28;20663;-74
2022/08/24 07:43:19;;;;;;;866.23;303.90;;;18.60;66.00;;;;;;4197238;28;20270;-73
2022/08/24 07:45:21;;;;;;;946.30;204.30;;;18.80;65.60;;;;;;4179476;28;20338;-73
2022/08/24 07:47:22;;;;;;;132.67;85.77;;;18.80;65.90;;;;;;4188029;28;20211;-73
2022/08/24 07:49:23;;;;;;;83.80;78.90;;;18.90;64.80;;;;;;4197222;28;20214;-74
2022/08/24 07:51:26;;;;;;;405.63;182.43;;;19.20;62.90;;;;;;4166706;28;20660;-69
2022/08/24 07:53:27;;;;;;;449.33;206.90;;;19.20;63.00;;;;;;4196520;28;20215;-68
2022/08/24 07:55:27;;;;;;;583.43;214.63;;;19.20;63.50;;;;;;4197171;28;20655;-69
2022/08/24 07:57:28;;;;;;;173.73;103.20;;;19.40;63.90;;;;;;4186271;28;20246;-68
2022/08/24 07:59:29;;;;;;;405.13;366.87;;;19.60;61.00;;;;;;4188684;28;20184;-68
2022/08/24 08:01:30;;;;;;;51.83;48.17;;;19.40;64.10;;;;;;4197044;28;20721;-67
2022/08/24 08:03:32;;;;;;;51.70;48.27;;;19.60;62.30;;;;;;4171210;28;20181;-68
2022/08/24 08:05:38;;;;;;;166.33;116.27;;;19.80;58.60;;;;;;4197238;28;20196;-67
2022/08/24 08:07:40;;;;;;;92.27;83.13;;;20.00;57.50;;;;;;4187357;28;20180;-69
2022/08/24 08:09:40;;;;;;;17.07;16.27;;;20.10;56.50;;;;;;4196769;28;20316;-69
2022/08/24 08:11:41;;;;;;;26.90;25.47;;;20.30;53.60;;;;;;4196797;28;20232;-69
2022/08/24 08:13:42;;;;;;;32.77;30.87;;;20.60;51.50;;;;;;4196023;28;20810;-69
2022/08/24 08:15:43;;;;;;;175.30;106.93;;;20.80;51.10;;;;;;4197049;28;20229;-70
2022/08/24 08:17:43;;;;;;;18.03;17.10;;;20.90;52.30;;;;;;4188060;28;20194;-69
2022/08/24 08:19:44;;;;;;;266.37;185.13;;;21.10;48.90;;;;;;4196737;28;20192;-69
2022/08/24 08:24:16;;;;;;;19.20;18.27;;;21.30;46.70;;;;;;4195925;28;20264;-70
2022/08/24 08:26:19;;;;;;;13.00;12.17;;;21.60;45.40;;;;;;4196594;28;20666;-70
2022/08/24 08:28:20;;;;;;;278.70;244.73;;;21.80;46.00;;;;;;4181158;28;20192;-70
2022/08/24 08:30:21;;;;;;;967.40;481.57;;;21.90;44.00;;;;;;4196102;28;20227;-70
2022/08/24 08:32:22;;;;;;;21.63;20.40;;;21.90;45.20;;;;;;4196343;28;20207;-70
2022/08/24 08:34:23;;;;;;;283.90;266.77;;;21.90;44.10;;;;;;4195809;28;20290;-71
2022/08/24 08:36:24;;;;;;;130.90;118.97;;;22.10;50.30;;;;;;4196464;28;20711;-71
2022/08/24 08:38:25;;;;;;;40.17;33.17;;;22.10;44.60;;;;;;4193368;28;20225;-70
2022/08/24 08:40:54;;;;;;;14.23;13.33;;;22.10;47.00;;;;;;4196578;28;20179;-72
2022/08/24 08:43:12;;;;;;;49.10;44.17;;;22.50;44.80;;;;;;4180325;28;20180;-71
2022/08/24 08:45:42;;;;;;;22.67;21.33;;;22.80;45.50;;;;;;4173737;28;20334;-70
2022/08/24 08:48:12;;;;;;;5.03;4.63;;;23.00;42.10;;;;;;4187339;28;20187;-69
2022/08/24 08:50:30;;;;;;;83.73;76.90;;;23.00;40.40;;;;;;4181726;28;20283;-73
2022/08/24 08:52:53;;;;;;;26.27;24.23;;;23.10;39.60;;;;;;4193907;28;20207;-72
2022/08/24 08:55:14;;;;;;;36.30;32.67;;;23.30;40.80;;;;;;4166004;28;20791;-75
2022/08/24 08:57:51;;;;;;;68.67;62.27;;;23.60;40.30;;;;;;4195535;28;20192;-73
2022/08/24 09:00:18;;;;;;;103.50;92.97;;;23.30;39.00;;;;;;4189513;28;20199;-70
2022/08/24 09:02:27;;;;;;;20.10;18.57;;;23.60;38.50;;;;;;4180628;28;20653;-71
2022/08/24 09:05:08;;;;;;;23.40;21.60;;;23.70;37.50;;;;;;4192925;28;20206;-71
2022/08/24 09:07:43;;;;;;;6.43;6.03;;;23.60;37.30;;;;;;4183865;28;20240;-72
2022/08/24 09:09:59;;;;;;;21.97;20.17;;;23.90;36.00;;;;;;4195773;28;20222;-71
2022/08/24 09:12:28;;;;;;;321.63;269.23;;;24.20;35.90;;;;;;4195531;28;20215;-72
2022/08/24 09:14:57;;;;;;;388.10;202.07;;;24.20;35.20;;;;;;4178406;28;20283;-70
2022/08/24 09:17:27;;;;;;;76.47;70.10;;;24.20;35.30;;;;;;4181863;28;20199;-70
2022/08/24 09:20:14;;;;;;;1999.90;697.97;;;24.20;35.60;;;;;;4187551;28;20184;-71
2022/08/24 09:22:19;;;;;;;7.47;6.87;;;24.30;34.60;;;;;;4187278;28;20568;-70
2022/08/24 09:24:53;;;;;;;42.87;39.60;;;24.20;34.90;;;;;;4179649;28;20196;-71
2022/08/24 09:27:11;;;;;;;54.13;42.43;;;24.30;35.90;;;;;;4181606;28;20609;-71
2022/08/24 09:29:17;;;;;;;150.97;105.63;;;24.90;34.20;;;;;;4189599;28;20222;-71
2022/08/24 09:31:40;;;;;;;35.33;31.33;;;24.90;35.00;;;;;;4183244;28;20214;-71
2022/08/24 09:33:45;;;;;;;25.37;23.37;;;24.90;34.00;;;;;;4194955;28;20172;-70
2022/08/24 09:36:10;;;;;;;9.10;8.57;;;25.10;33.80;;;;;;4186561;28;20188;-70
2022/08/24 09:39:06;;;;;;;24.83;23.07;;;25.10;33.90;;;;;;4181498;28;20664;-72
2022/08/24 09:41:48;;;;;;;26.63;24.23;;;25.60;34.30;;;;;;4149157;28;20716;-71
2022/08/24 09:44:10;;;;;;;19.23;17.63;;;25.20;33.60;;;;;;4195719;28;20183;-74
2022/08/24 09:46:30;;;;;;;8.20;7.73;;;25.80;33.20;;;;;;4197899;28;20373;-73
2022/08/24 09:49:01;;;;;;;31.17;28.43;;;26.00;31.60;;;;;;4197160;28;20241;-73
2022/08/24 09:51:56;;;;;;;14.03;13.23;;;25.90;31.50;;;;;;4188750;28;20302;-73
2022/08/24 09:54:47;;;;;;;31.33;28.80;;;26.00;32.00;;;;;;4177508;28;20251;-73
2022/08/24 09:57:27;;;;;;;49.27;44.30;;;26.10;31.00;;;;;;4196379;28;20203;-73
2022/08/24 10:00:13;;;;;;;1258.67;500.40;;;25.90;33.50;;;;;;4196793;28;20191;-72
2022/08/24 10:02:48;;;;;;;23.23;18.93;;;26.10;30.20;;;;;;4196941;28;20183;-73
2022/08/24 10:05:27;;;;;;;30.43;27.73;;;26.30;32.50;;;;;;4165184;28;20248;-72
2022/08/24 10:08:04;;;;;;;141.60;110.37;;;26.60;30.70;;;;;;4188976;28;20172;-72
2022/08/24 10:10:20;;;;;;;1224.97;398.30;;;26.70;31.00;;;;;;4196759;28;20179;-71
2022/08/24 10:13:03;;;;;;;130.53;81.53;;;26.70;30.00;;;;;;4180193;28;20692;-71
2022/08/24 10:15:10;;;;;;;56.10;50.87;;;26.50;30.70;;;;;;4173041;28;20751;-71
2022/08/24 10:17:32;;;;;;;619.87;134.90;;;26.90;29.80;;;;;;4189576;28;20263;-72
2022/08/24 10:20:04;;;;;;;1999.90;998.10;;;27.00;29.60;;;;;;4195459;28;20190;-73
2022/08/24 10:22:39;;;;;;;49.40;44.17;;;27.10;28.50;;;;;;4181898;28;20180;-71
2022/08/24 10:25:02;;;;;;;221.60;134.40;;;28.00;28.00;;;;;;4161358;28;20204;-74
2022/08/24 10:27:53;;;;;;;1312.50;538.73;;;28.20;28.00;;;;;;4195846;28;20171;-74
2022/08/24 10:30:20;;;;;;;52.37;48.30;;;28.10;28.50;;;;;;4184567;28;20226;-73
2022/08/24 10:33:08;;;;;;;201.53;128.93;;;28.50;28.90;;;;;;4193089;28;20230;-72
2022/08/24 10:35:32;;;;;;;55.13;49.75;;;28.40;27.70;;;;;;4166296;28;20212;-71
2022/08/24 10:37:46;;;;;;;181.73;105.43;;;29.50;27.80;;;;;;4170986;28;20272;-72
2022/08/24 10:40:30;;;;;;;468.88;205.35;;;29.70;25.80;;;;;;4188322;28;20211;-75
2022/08/24 10:45:39;;;;;;;358.67;175.13;;;30.30;24.70;;;;;;4181335;28;20241;-73
2022/08/24 10:48:07;;;;;;;1344.80;435.77;;;31.20;24.20;;;;;;4186613;28;20175;-73